Time;durP1;ratioP1;P1;durP2;ratioP2;P2;SDS_P1;SDS_P2;PMS_P1;PMS_P2;Temp;Humidity;BMP_temperature;BMP_pressure;BME280_temperature;BME280_humidity;BME280_pressure;Samples;Min_cycle;Max_cycle;Signal;HPM_P1;HPM_P2
2022/11/23 00:00:14;;;;;;;14.40;10.20;;;;;;;;;;108793;1261;22516;-32
2022/11/23 00:03:07;;;;;;;14.40;10.70;;;;;;;;;;108811;1263;22663;-32
2022/11/23 00:05:40;;;;;;;14.00;10.30;;;;;;;;;;108830;1255;22669;-32
2022/11/23 00:08:12;;;;;;;14.10;10.40;;;;;;;;;;108836;1263;22554;-32
2022/11/23 00:10:44;;;;;;;13.60;10.70;;;;;;;;;;108878;1256;22548;-32
2022/11/23 00:13:16;;;;;;;14.60;10.70;;;;;;;;;;108895;1260;24034;-32
2022/11/23 00:15:49;;;;;;;14.20;10.30;;;;;;;;;;108895;1260;22540;-31
2022/11/23 00:18:21;;;;;;;14.60;11.00;;;;;;;;;;108869;1256;22555;-32
2022/11/23 00:20:53;;;;;;;14.50;11.00;;;;;;;;;;108779;1263;22604;-32
2022/11/23 00:23:26;;;;;;;14.40;11.20;;;;;;;;;;108832;1263;22504;-31
2022/11/23 00:25:58;;;;;;;15.00;11.70;;;;;;;;;;108764;1255;22489;-32
2022/11/23 00:28:30;;;;;;;15.70;11.10;;;;;;;;;;108795;1263;22498;-32
2022/11/23 00:31:03;;;;;;;14.30;10.80;;;;;;;;;;108889;1262;23700;-32
2022/11/23 00:33:36;;;;;;;14.30;10.40;;;;;;;;;;108876;1262;25382;-32
2022/11/23 00:36:13;;;;;;;14.80;11.50;;;;;;;;;;108894;1262;22535;-31
2022/11/23 00:38:46;;;;;;;14.70;10.90;;;;;;;;;;108906;1262;22541;-32
2022/11/23 00:41:24;;;;;;;13.80;10.60;;;;;;;;;;108807;1262;22475;-32
2022/11/23 00:43:56;;;;;;;14.90;11.10;;;;;;;;;;108799;1263;23018;-32
2022/11/23 00:46:29;;;;;;;14.10;10.80;;;;;;;;;;108769;1264;22590;-32
2022/11/23 00:49:03;;;;;;;14.80;10.70;;;;;;;;;;108804;1262;22543;-31
2022/11/23 00:51:35;;;;;;;;;;;;;;;;;;108911;1257;22525;-32
2022/11/23 00:54:08;;;;;;;14.40;10.60;;;;;;;;;;108899;1262;22537;-31
2022/11/23 00:56:40;;;;;;;14.10;10.00;;;;;;;;;;108892;1259;22555;-31
2022/11/23 00:59:13;;;;;;;13.30;10.00;;;;;;;;;;108896;1261;22601;-32
2022/11/23 01:01:45;;;;;;;14.80;10.10;;;;;;;;;;108792;1258;22663;-32
2022/11/23 01:04:19;;;;;;;14.90;10.50;;;;;;;;;;108783;1263;22560;-32
2022/11/23 01:06:55;;;;;;;13.60;10.80;;;;;;;;;;108821;1263;22693;-32
2022/11/23 01:09:29;;;;;;;14.80;11.10;;;;;;;;;;108801;1264;23903;-31
2022/11/23 01:12:02;;;;;;;12.80;9.90;;;;;;;;;;108880;1263;22539;-32
2022/11/23 01:14:34;;;;;;;13.60;9.80;;;;;;;;;;108749;1263;25410;-31
2022/11/23 01:17:06;;;;;;;13.90;10.00;;;;;;;;;;108910;1262;22588;-31
2022/11/23 01:19:39;;;;;;;13.60;10.30;;;;;;;;;;108855;1262;22766;-32
2022/11/23 01:22:11;;;;;;;12.80;10.00;;;;;;;;;;108779;1263;22714;-32
2022/11/23 01:24:43;;;;;;;13.70;10.10;;;;;;;;;;108797;1262;22697;-32
2022/11/23 01:27:15;;;;;;;11.90;9.80;;;;;;;;;;108807;1264;22626;-32
2022/11/23 01:29:48;;;;;;;13.80;10.20;;;;;;;;;;108848;1265;25409;-32
2022/11/23 01:32:20;;;;;;;12.40;9.40;;;;;;;;;;108894;1262;25396;-31
2022/11/23 01:34:53;;;;;;;13.50;10.10;;;;;;;;;;108930;1263;22552;-32
2022/11/23 01:37:25;;;;;;;14.80;10.00;;;;;;;;;;108906;1262;22561;-31
2022/11/23 01:39:57;;;;;;;13.60;10.50;;;;;;;;;;108928;1262;22564;-32
2022/11/23 01:42:47;;;;;;;13.10;10.10;;;;;;;;;;108787;1262;22722;-32
2022/11/23 01:45:41;;;;;;;13.20;9.60;;;;;;;;;;108802;1262;22569;-32
2022/11/23 01:48:20;;;;;;;12.30;9.70;;;;;;;;;;108814;1264;22512;-31
2022/11/23 01:50:55;;;;;;;13.80;10.10;;;;;;;;;;108779;1263;22544;-31
2022/11/23 01:53:28;;;;;;;12.90;9.60;;;;;;;;;;108894;1262;22559;-32
2022/11/23 01:56:05;;;;;;;12.90;9.70;;;;;;;;;;108902;1260;22507;-32
2022/11/23 01:58:44;;;;;;;12.40;9.60;;;;;;;;;;108875;1262;22541;-31
2022/11/23 02:01:17;;;;;;;13.40;9.60;;;;;;;;;;108874;1259;24170;-32
2022/11/23 02:03:52;;;;;;;12.70;9.40;;;;;;;;;;108806;1259;25366;-32
2022/11/23 02:06:26;;;;;;;12.40;9.30;;;;;;;;;;108854;1263;22586;-32
2022/11/23 02:08:59;;;;;;;13.00;9.60;;;;;;;;;;108784;1263;22560;-32
2022/11/23 02:11:31;;;;;;;13.40;9.60;;;;;;;;;;108810;1262;22551;-32
2022/11/23 02:14:04;;;;;;;12.60;9.40;;;;;;;;;;108897;1263;24176;-32
2022/11/23 02:16:37;;;;;;;12.40;9.60;;;;;;;;;;108909;1262;22539;-32
2022/11/23 02:19:20;;;;;;;12.70;9.60;;;;;;;;;;108852;1262;22499;-32
2022/11/23 02:21:55;;;;;;;13.40;9.70;;;;;;;;;;108815;1260;22578;-32
2022/11/23 02:24:34;;;;;;;13.20;10.00;;;;;;;;;;108798;1265;22664;-31
2022/11/23 02:27:07;;;;;;;13.20;9.50;;;;;;;;;;108806;1261;24149;-31
2022/11/23 02:29:41;;;;;;;12.20;9.20;;;;;;;;;;108795;1262;22529;-31
2022/11/23 02:32:13;;;;;;;12.30;9.30;;;;;;;;;;108833;1263;22616;-32
2022/11/23 02:34:45;;;;;;;12.40;9.10;;;;;;;;;;108894;1262;23821;-31
2022/11/23 02:37:18;;;;;;;12.60;9.50;;;;;;;;;;108927;1262;22603;-32
2022/11/23 02:39:53;;;;;;;11.60;8.50;;;;;;;;;;108872;1262;22548;-31
2022/11/23 02:42:28;;;;;;;12.10;9.00;;;;;;;;;;108852;1263;22577;-31
2022/11/23 02:45:08;;;;;;;12.60;9.40;;;;;;;;;;108781;1263;22563;-31
2022/11/23 02:47:41;;;;;;;12.60;9.00;;;;;;;;;;108791;1265;22577;-31
2022/11/23 02:50:14;;;;;;;11.40;8.60;;;;;;;;;;108752;1263;22517;-32
2022/11/23 02:52:46;;;;;;;11.20;8.50;;;;;;;;;;108799;1262;22574;-31
2022/11/23 02:55:18;;;;;;;12.00;8.80;;;;;;;;;;108910;1262;22505;-32
2022/11/23 02:57:50;;;;;;;11.70;9.10;;;;;;;;;;108862;1262;23913;-31
2022/11/23 03:00:23;;;;;;;10.90;8.30;;;;;;;;;;108888;1262;25321;-31
2022/11/23 03:02:55;;;;;;;11.40;8.70;;;;;;;;;;108827;1262;22588;-31
2022/11/23 03:05:28;;;;;;;11.80;8.80;;;;;;;;;;108781;1265;25472;-31
2022/11/23 03:08:00;;;;;;;11.60;8.50;;;;;;;;;;108781;1265;22554;-31
2022/11/23 03:10:33;;;;;;;9.80;7.80;;;;;;;;;;108773;1263;22548;-31
2022/11/23 03:13:05;;;;;;;11.20;8.70;;;;;;;;;;108787;1263;24904;-31
2022/11/23 03:15:37;;;;;;;11.90;8.80;;;;;;;;;;108894;1256;22520;-32
2022/11/23 03:18:09;;;;;;;11.40;8.20;;;;;;;;;;108891;1263;22557;-31
2022/11/23 03:20:42;;;;;;;11.50;8.70;;;;;;;;;;108873;1263;22548;-32
2022/11/23 03:23:14;;;;;;;11.10;8.40;;;;;;;;;;108805;1263;22592;-32
2022/11/23 03:25:48;;;;;;;10.90;8.20;;;;;;;;;;108758;1264;22634;-32
2022/11/23 03:28:23;;;;;;;10.90;8.10;;;;;;;;;;108801;1265;22748;-32
2022/11/23 03:30:56;;;;;;;10.90;8.20;;;;;;;;;;108794;1263;22526;-31
2022/11/23 03:33:28;;;;;;;11.10;8.40;;;;;;;;;;108791;1259;22552;-31
2022/11/23 03:36:01;;;;;;;11.90;9.10;;;;;;;;;;108892;1262;22555;-32
2022/11/23 03:38:33;;;;;;;11.10;8.10;;;;;;;;;;108929;1262;22531;-31
2022/11/23 03:41:06;;;;;;;11.20;8.30;;;;;;;;;;108930;1262;22552;-31
2022/11/23 03:43:38;;;;;;;11.20;8.50;;;;;;;;;;108828;1262;22506;-32
2022/11/23 03:46:11;;;;;;;11.40;8.60;;;;;;;;;;108749;1263;22611;-31
2022/11/23 03:48:43;;;;;;;10.70;8.60;;;;;;;;;;108821;1268;22780;-31
2022/11/23 03:51:16;;;;;;;11.30;7.90;;;;;;;;;;108816;1263;22676;-32
2022/11/23 03:53:48;;;;;;;11.30;8.30;;;;;;;;;;108798;1268;23014;-32
2022/11/23 03:56:20;;;;;;;11.20;7.80;;;;;;;;;;108880;1262;22548;-32
2022/11/23 03:58:53;;;;;;;12.40;8.40;;;;;;;;;;108905;1263;22523;-31
2022/11/23 04:01:25;;;;;;;11.90;8.20;;;;;;;;;;108902;1262;22655;-31
2022/11/23 04:03:57;;;;;;;9.90;7.80;;;;;;;;;;108840;1262;22544;-32
2022/11/23 04:06:30;;;;;;;10.70;8.30;;;;;;;;;;108809;1263;22560;-31
2022/11/23 04:09:02;;;;;;;10.50;7.80;;;;;;;;;;108839;1264;22548;-31
2022/11/23 04:11:34;;;;;;;10.80;7.70;;;;;;;;;;108839;1261;22493;-31
2022/11/23 04:14:07;;;;;;;10.40;7.50;;;;;;;;;;108841;1262;22705;-31
2022/11/23 04:16:39;;;;;;;11.50;8.10;;;;;;;;;;108883;1263;22554;-32
2022/11/23 04:19:14;;;;;;;11.40;8.40;;;;;;;;;;108879;1259;23876;-31
2022/11/23 04:21:46;;;;;;;11.20;8.20;;;;;;;;;;108898;1262;22535;-32
2022/11/23 04:24:19;;;;;;;10.70;8.00;;;;;;;;;;108829;1263;23855;-32
2022/11/23 04:26:54;;;;;;;11.00;8.30;;;;;;;;;;108859;1262;25256;-32
2022/11/23 04:29:26;;;;;;;11.50;8.10;;;;;;;;;;108818;1268;23898;-32
2022/11/23 04:31:58;;;;;;;10.90;8.00;;;;;;;;;;108803;1261;22546;-32
2022/11/23 04:34:30;;;;;;;10.90;8.00;;;;;;;;;;108810;1263;22604;-32
2022/11/23 04:37:03;;;;;;;10.70;7.40;;;;;;;;;;108870;1263;22497;-31
2022/11/23 04:39:35;;;;;;;11.00;8.40;;;;;;;;;;108894;1262;22529;-32
2022/11/23 04:42:09;;;;;;;10.50;8.30;;;;;;;;;;108891;1263;22624;-31
2022/11/23 04:44:41;;;;;;;11.40;8.30;;;;;;;;;;108839;1262;22690;-32
2022/11/23 04:47:14;;;;;;;10.90;8.10;;;;;;;;;;108829;1265;22544;-31
2022/11/23 04:49:47;;;;;;;10.70;7.90;;;;;;;;;;108798;1266;22545;-32
2022/11/23 04:52:19;;;;;;;11.20;8.10;;;;;;;;;;108831;1263;23980;-31
2022/11/23 04:54:52;;;;;;;10.30;7.40;;;;;;;;;;108794;1263;22540;-31
2022/11/23 04:57:24;;;;;;;10.60;7.80;;;;;;;;;;108929;1256;22541;-31
2022/11/23 04:59:56;;;;;;;10.40;7.40;;;;;;;;;;108759;1256;22545;-31
2022/11/23 05:02:29;;;;;;;10.90;7.90;;;;;;;;;;108899;1263;22537;-32
2022/11/23 05:05:01;;;;;;;10.40;7.60;;;;;;;;;;108816;1262;22515;-31
2022/11/23 05:07:34;;;;;;;11.50;8.40;;;;;;;;;;108797;1262;22763;-31
2022/11/23 05:10:07;;;;;;;10.10;7.20;;;;;;;;;;108821;1266;22547;-31
2022/11/23 05:12:40;;;;;;;11.30;7.70;;;;;;;;;;108833;1267;22531;-32
2022/11/23 05:15:15;;;;;;;11.00;8.00;;;;;;;;;;108793;1268;24993;-31
2022/11/23 05:17:47;;;;;;;11.40;7.60;;;;;;;;;;108912;1257;22601;-31
2022/11/23 05:20:20;;;;;;;10.40;7.20;;;;;;;;;;108904;1262;22655;-31
2022/11/23 05:22:52;;;;;;;10.70;8.00;;;;;;;;;;108907;1263;25257;-32
2022/11/23 05:25:25;;;;;;;10.00;7.00;;;;;;;;;;108853;1255;25469;-31
2022/11/23 05:27:57;;;;;;;10.30;7.00;;;;;;;;;;108837;1265;25215;-31
2022/11/23 05:30:32;;;;;;;10.10;7.30;;;;;;;;;;108804;1262;22594;-32
2022/11/23 05:33:05;;;;;;;10.30;7.30;;;;;;;;;;108850;1268;22627;-31
2022/11/23 05:35:38;;;;;;;10.10;7.20;;;;;;;;;;108835;1267;22940;-32
2022/11/23 05:38:10;;;;;;;10.70;7.60;;;;;;;;;;108876;1262;22540;-31
2022/11/23 05:40:44;;;;;;;10.30;7.80;;;;;;;;;;108901;1264;22627;-32
2022/11/23 05:43:16;;;;;;;9.20;6.80;;;;;;;;;;108897;1258;22542;-31
2022/11/23 05:45:49;;;;;;;11.60;8.00;;;;;;;;;;108833;1262;22509;-32
2022/11/23 05:48:23;;;;;;;10.00;7.20;;;;;;;;;;108846;1263;23925;-31
2022/11/23 05:50:55;;;;;;;9.90;6.80;;;;;;;;;;108836;1266;22536;-32
2022/11/23 05:53:27;;;;;;;10.50;7.40;;;;;;;;;;108871;1268;22546;-32
2022/11/23 05:56:04;;;;;;;10.20;7.00;;;;;;;;;;108781;1260;22534;-32
2022/11/23 05:58:36;;;;;;;10.80;7.50;;;;;;;;;;108815;1268;22548;-32
2022/11/23 06:01:09;;;;;;;10.40;7.50;;;;;;;;;;108813;1259;22533;-32
2022/11/23 06:03:41;;;;;;;9.60;7.30;;;;;;;;;;108835;1265;22487;-32
2022/11/23 06:06:13;;;;;;;10.60;6.70;;;;;;;;;;108838;1268;22595;-32
2022/11/23 06:08:46;;;;;;;10.40;7.20;;;;;;;;;;108904;1269;22569;-31
2022/11/23 06:11:18;;;;;;;10.20;7.10;;;;;;;;;;108913;1263;22763;-32
2022/11/23 06:13:51;;;;;;;9.90;6.90;;;;;;;;;;108899;1263;24189;-32
2022/11/23 06:16:23;;;;;;;9.40;7.00;;;;;;;;;;108836;1262;25509;-32
2022/11/23 06:18:56;;;;;;;10.40;7.20;;;;;;;;;;108815;1268;22549;-32
2022/11/23 06:21:28;;;;;;;9.70;6.70;;;;;;;;;;108848;1263;22538;-32
2022/11/23 06:24:00;;;;;;;9.60;6.80;;;;;;;;;;108852;1263;22505;-31
2022/11/23 06:26:36;;;;;;;9.40;7.10;;;;;;;;;;108906;1266;22524;-33
2022/11/23 06:29:08;;;;;;;11.00;6.80;;;;;;;;;;108938;1269;22543;-33
2022/11/23 06:31:41;;;;;;;11.00;7.60;;;;;;;;;;108918;1269;22620;-33
2022/11/23 06:34:13;;;;;;;10.30;6.80;;;;;;;;;;108923;1262;23713;-33
2022/11/23 06:36:45;;;;;;;9.60;7.20;;;;;;;;;;108886;1262;22093;-33
2022/11/23 06:39:18;;;;;;;9.90;7.20;;;;;;;;;;108897;1268;22541;-33
2022/11/23 06:41:50;;;;;;;9.00;6.30;;;;;;;;;;108828;1265;22568;-33
2022/11/23 06:44:22;;;;;;;10.20;7.20;;;;;;;;;;108837;1263;25268;-33
2022/11/23 06:46:54;;;;;;;9.60;6.90;;;;;;;;;;108873;1263;22519;-30
2022/11/23 06:49:27;;;;;;;10.10;6.50;;;;;;;;;;108860;1262;182246;-30
2022/11/23 06:51:59;;;;;;;8.90;6.30;;;;;;;;;;108997;1266;22497;-30
2022/11/23 06:54:32;;;;;;;9.50;6.80;;;;;;;;;;108987;1268;25407;-30
2022/11/23 06:57:07;;;;;;;10.40;6.80;;;;;;;;;;108926;1264;24189;-30
2022/11/23 06:59:39;;;;;;;9.70;6.80;;;;;;;;;;108923;1263;22604;-30
2022/11/23 07:02:13;;;;;;;9.60;6.70;;;;;;;;;;108934;1265;22553;-30
2022/11/23 07:04:45;;;;;;;9.50;6.50;;;;;;;;;;108972;1262;25396;-30
2022/11/23 07:07:18;;;;;;;9.50;6.90;;;;;;;;;;108907;1267;25379;-30
2022/11/23 07:09:50;;;;;;;9.70;6.70;;;;;;;;;;109019;1262;22506;-30
2022/11/23 07:12:22;;;;;;;8.90;6.70;;;;;;;;;;109008;1264;22548;-30
2022/11/23 07:14:55;;;;;;;8.90;6.70;;;;;;;;;;108989;1267;22547;-30
2022/11/23 07:17:27;;;;;;;8.90;6.20;;;;;;;;;;108955;1262;24046;-30
2022/11/23 07:20:00;;;;;;;9.00;6.40;;;;;;;;;;108854;1268;25383;-30
2022/11/23 07:22:32;;;;;;;9.30;6.20;;;;;;;;;;108911;1262;22553;-30
2022/11/23 07:25:10;;;;;;;9.80;6.60;;;;;;;;;;108870;1268;22629;-30
2022/11/23 07:27:42;;;;;;;9.70;6.20;;;;;;;;;;108894;1267;22744;-30
2022/11/23 07:30:16;;;;;;;9.60;6.10;;;;;;;;;;108768;1262;22666;-29
2022/11/23 07:32:48;;;;;;;10.60;6.60;;;;;;;;;;108859;1268;22669;-29
2022/11/23 07:35:22;;;;;;;9.40;6.30;;;;;;;;;;108831;1264;25382;-29
2022/11/23 07:37:53;;;;;;;9.40;6.70;;;;;;;;;;108812;1265;23730;-29
2022/11/23 07:40:26;;;;;;;10.60;6.90;;;;;;;;;;108671;1268;23760;-29
2022/11/23 07:43:02;;;;;;;11.80;7.00;;;;;;;;;;108611;1263;22520;-29
2022/11/23 07:45:37;;;;;;;9.70;6.90;;;;;;;;;;108622;1269;22606;-29
2022/11/23 07:48:11;;;;;;;9.10;6.60;;;;;;;;;;108734;1265;23831;-28
2022/11/23 07:50:43;;;;;;;10.40;6.60;;;;;;;;;;108846;1265;24244;-29
2022/11/23 07:53:15;;;;;;;9.80;6.70;;;;;;;;;;108812;1260;22556;-28
2022/11/23 07:55:47;;;;;;;9.60;6.80;;;;;;;;;;108777;1268;22563;-29
2022/11/23 07:58:19;;;;;;;9.60;6.80;;;;;;;;;;108713;1264;22508;-29
2022/11/23 08:00:51;;;;;;;9.50;6.60;;;;;;;;;;108621;1267;22525;-29
2022/11/23 08:03:23;;;;;;;10.60;6.60;;;;;;;;;;108686;1255;22544;-29
2022/11/23 08:05:55;;;;;;;8.70;6.40;;;;;;;;;;108645;1267;22522;-29
2022/11/23 08:08:28;;;;;;;9.20;6.30;;;;;;;;;;108645;1267;22582;-29
2022/11/23 08:11:00;;;;;;;12.20;6.70;;;;;;;;;;108860;1266;25501;-28
2022/11/23 08:13:34;;;;;;;9.60;6.50;;;;;;;;;;108843;1267;22508;-29
2022/11/23 08:16:07;;;;;;;8.80;6.40;;;;;;;;;;108832;1263;22558;-29
2022/11/23 08:18:39;;;;;;;9.80;6.20;;;;;;;;;;108760;1268;22496;-28
2022/11/23 08:21:11;;;;;;;9.80;6.60;;;;;;;;;;108608;1265;22583;-29
2022/11/23 08:23:44;;;;;;;10.20;6.60;;;;;;;;;;108619;1266;22611;-31
2022/11/23 08:26:16;;;;;;;9.00;6.70;;;;;;;;;;108627;1266;22524;-30
2022/11/23 08:28:48;;;;;;;10.40;6.90;;;;;;;;;;108639;1264;22493;-29
2022/11/23 08:31:20;;;;;;;8.80;6.70;;;;;;;;;;108838;1268;22669;-29
2022/11/23 08:33:53;;;;;;;10.30;6.90;;;;;;;;;;108861;1268;22560;-30
2022/11/23 08:36:25;;;;;;;10.00;6.40;;;;;;;;;;108850;1264;22745;-29
2022/11/23 08:38:57;;;;;;;9.00;6.20;;;;;;;;;;108755;1263;23650;-30
2022/11/23 08:41:30;;;;;;;9.60;6.10;;;;;;;;;;108640;1265;22829;-29
2022/11/23 08:44:02;;;;;;;8.90;6.50;;;;;;;;;;108654;1264;23718;-29
2022/11/23 08:46:35;;;;;;;9.10;6.40;;;;;;;;;;108646;1262;22549;-29
2022/11/23 08:49:08;;;;;;;10.40;6.60;;;;;;;;;;108612;1264;23847;-28
2022/11/23 08:51:40;;;;;;;8.70;6.20;;;;;;;;;;108828;1268;23957;-29
2022/11/23 08:54:13;;;;;;;9.30;6.20;;;;;;;;;;108860;1263;22570;-29
2022/11/23 08:56:45;;;;;;;9.00;6.70;;;;;;;;;;108831;1264;22525;-29
2022/11/23 08:59:17;;;;;;;8.30;6.20;;;;;;;;;;108767;1268;22561;-29
2022/11/23 09:01:49;;;;;;;9.70;6.40;;;;;;;;;;108656;1269;22697;-29
2022/11/23 09:04:22;;;;;;;10.00;6.80;;;;;;;;;;108660;1267;22532;-30
2022/11/23 09:06:54;;;;;;;10.40;6.50;;;;;;;;;;108628;1271;22536;-31
2022/11/23 09:09:27;;;;;;;9.00;6.40;;;;;;;;;;108646;1264;22527;-30
2022/11/23 09:11:59;;;;;;;9.10;6.40;;;;;;;;;;108854;1266;22518;-30
2022/11/23 09:14:31;;;;;;;9.90;6.70;;;;;;;;;;108865;1268;22561;-30
2022/11/23 09:17:05;;;;;;;8.50;6.30;;;;;;;;;;108842;1268;22554;-29
2022/11/23 09:19:37;;;;;;;9.30;6.90;;;;;;;;;;108737;1265;22552;-29
2022/11/23 09:22:10;;;;;;;8.60;6.70;;;;;;;;;;108645;1262;22488;-29
2022/11/23 09:24:42;;;;;;;8.80;6.70;;;;;;;;;;108616;1263;22717;-30
2022/11/23 09:27:14;;;;;;;9.00;6.60;;;;;;;;;;108690;1266;22608;-30
2022/11/23 09:29:46;;;;;;;8.40;5.90;;;;;;;;;;108652;1264;22599;-30
2022/11/23 09:32:18;;;;;;;9.10;6.20;;;;;;;;;;108841;1268;22597;-29
2022/11/23 09:34:50;;;;;;;7.70;5.80;;;;;;;;;;108811;1268;22558;-29
2022/11/23 09:37:23;;;;;;;7.90;6.20;;;;;;;;;;108873;1262;22505;-30
2022/11/23 09:39:55;;;;;;;8.30;5.90;;;;;;;;;;108778;1263;22522;-30
2022/11/23 09:43:03;;;;;;;9.20;6.50;;;;;;;;;;108625;1264;25406;-29
2022/11/23 09:45:45;;;;;;;8.80;6.00;;;;;;;;;;108585;1271;22560;-29
2022/11/23 09:48:48;;;;;;;8.60;6.10;;;;;;;;;;108572;1271;22504;-29
2022/11/23 09:51:23;;;;;;;9.00;6.20;;;;;;;;;;108701;1264;22568;-29
2022/11/23 09:53:58;;;;;;;8.30;6.00;;;;;;;;;;108807;1260;22544;-29
2022/11/23 09:56:35;;;;;;;8.40;6.50;;;;;;;;;;108846;1263;25405;-29
2022/11/23 09:59:22;;;;;;;8.00;5.60;;;;;;;;;;108806;1268;22550;-29
2022/11/23 10:01:54;;;;;;;8.10;6.00;;;;;;;;;;108694;1269;23131;-29
2022/11/23 10:04:27;;;;;;;8.30;5.60;;;;;;;;;;108638;1268;22630;-29
2022/11/23 10:07:08;;;;;;;8.30;5.80;;;;;;;;;;108610;1263;22555;-29
2022/11/23 10:09:50;;;;;;;8.30;5.80;;;;;;;;;;108617;1261;25522;-29
2022/11/23 10:12:38;;;;;;;7.90;5.90;;;;;;;;;;108744;1263;22522;-29
2022/11/23 10:15:21;;;;;;;8.70;5.90;;;;;;;;;;108805;1264;25398;-29
2022/11/23 10:18:09;;;;;;;9.60;5.80;;;;;;;;;;108792;1263;22596;-29
2022/11/23 10:20:52;;;;;;;8.20;5.90;;;;;;;;;;108783;1268;25406;-29
2022/11/23 10:23:49;;;;;;;8.30;6.00;;;;;;;;;;108797;1265;22582;-30
2022/11/23 10:26:29;;;;;;;8.60;6.00;;;;;;;;;;108673;1262;22583;-29
2022/11/23 10:29:11;;;;;;;9.10;6.30;;;;;;;;;;108635;1262;22648;-29
2022/11/23 10:31:48;;;;;;;8.70;5.90;;;;;;;;;;108653;1261;22512;-29
2022/11/23 10:34:34;;;;;;;9.90;6.70;;;;;;;;;;108820;1262;22630;-29
2022/11/23 10:37:10;;;;;;;9.50;7.20;;;;;;;;;;108794;1265;22596;-29
2022/11/23 10:39:42;;;;;;;8.80;6.30;;;;;;;;;;108850;1262;22553;-28
2022/11/23 10:42:23;;;;;;;9.20;6.50;;;;;;;;;;108584;1261;23902;-30
2022/11/23 10:44:58;;;;;;;8.60;6.10;;;;;;;;;;108634;1264;22609;-29
2022/11/23 10:47:41;;;;;;;8.50;6.30;;;;;;;;;;108624;1270;23790;-30
2022/11/23 10:50:33;;;;;;;8.30;6.20;;;;;;;;;;108649;1262;22564;-30
2022/11/23 10:53:27;;;;;;;8.50;6.70;;;;;;;;;;108784;1266;24381;-30
2022/11/23 10:56:00;;;;;;;;;;;;;;;;;;108859;1263;22525;-29
2022/11/23 10:58:41;;;;;;;9.70;6.80;;;;;;;;;;108843;1266;22669;-30
2022/11/23 11:01:19;;;;;;;9.30;7.10;;;;;;;;;;108820;1265;25222;-29
2022/11/23 11:03:55;;;;;;;9.00;6.60;;;;;;;;;;108566;1267;22486;-29
2022/11/23 11:06:30;;;;;;;8.80;6.60;;;;;;;;;;108607;1262;22558;-29
2022/11/23 11:09:05;;;;;;;8.40;7.20;;;;;;;;;;108711;1255;22574;-29
2022/11/23 11:11:42;;;;;;;10.20;7.20;;;;;;;;;;108592;1264;22538;-29
2022/11/23 11:14:22;;;;;;;9.50;7.40;;;;;;;;;;108805;1263;22570;-30
2022/11/23 11:16:56;;;;;;;9.30;7.10;;;;;;;;;;108857;1269;22498;-29
2022/11/23 11:19:33;;;;;;;8.80;7.20;;;;;;;;;;108836;1263;25404;-29
2022/11/23 11:22:34;;;;;;;9.20;7.70;;;;;;;;;;108754;1260;22697;-29
2022/11/23 11:25:29;;;;;;;9.00;7.00;;;;;;;;;;108643;1263;22560;-31
2022/11/23 11:28:04;;;;;;;9.00;7.00;;;;;;;;;;108760;1263;22546;-30
2022/11/23 11:30:49;;;;;;;8.20;6.70;;;;;;;;;;108677;1264;22553;-30
2022/11/23 11:33:29;;;;;;;10.80;7.30;;;;;;;;;;108713;1263;22527;-28
2022/11/23 11:36:06;;;;;;;8.40;7.40;;;;;;;;;;108785;1263;25404;-28
2022/11/23 11:38:41;;;;;;;8.90;7.60;;;;;;;;;;108822;1263;22613;-28
2022/11/23 11:41:18;;;;;;;8.20;6.90;;;;;;;;;;108778;1260;22553;-29
2022/11/23 11:43:56;;;;;;;9.30;7.90;;;;;;;;;;108644;1263;22549;-29
2022/11/23 11:46:33;;;;;;;9.20;7.60;;;;;;;;;;108812;1265;22594;-29
2022/11/23 11:49:14;;;;;;;8.40;7.40;;;;;;;;;;108664;1261;22552;-29
2022/11/23 11:51:53;;;;;;;8.90;7.80;;;;;;;;;;108646;1259;22542;-29
2022/11/23 11:54:34;;;;;;;8.90;7.50;;;;;;;;;;108771;1265;25392;-29
2022/11/23 11:57:16;;;;;;;9.20;7.70;;;;;;;;;;108898;1263;23029;-29
2022/11/23 11:59:52;;;;;;;9.70;7.70;;;;;;;;;;108823;1263;25295;-29
2022/11/23 12:02:28;;;;;;;8.80;7.40;;;;;;;;;;108879;1263;22563;-29
2022/11/23 12:05:11;;;;;;;9.80;7.90;;;;;;;;;;108621;1265;22700;-29
2022/11/23 12:07:52;;;;;;;10.00;8.10;;;;;;;;;;108733;1265;23919;-30
2022/11/23 12:10:30;;;;;;;9.90;8.00;;;;;;;;;;108761;1261;25868;-30
2022/11/23 12:13:02;;;;;;;9.40;7.30;;;;;;;;;;108578;1265;22667;-32
2022/11/23 12:15:42;;;;;;;8.70;7.70;;;;;;;;;;108784;1266;22657;-31
2022/11/23 12:18:47;;;;;;;8.70;7.80;;;;;;;;;;108790;1263;22486;-32
2022/11/23 12:21:36;;;;;;;10.00;8.40;;;;;;;;;;108764;1266;22530;-32
2022/11/23 12:24:19;;;;;;;8.60;7.20;;;;;;;;;;108740;1262;22525;-32
2022/11/23 12:27:01;;;;;;;8.90;7.20;;;;;;;;;;108704;1262;22536;-32
2022/11/23 12:29:59;;;;;;;9.40;7.50;;;;;;;;;;108698;1264;23016;-32
2022/11/23 12:32:45;;;;;;;9.10;7.40;;;;;;;;;;108595;1263;22541;-32
2022/11/23 12:35:36;;;;;;;8.40;7.10;;;;;;;;;;108775;1263;22490;-32
2022/11/23 12:38:22;;;;;;;8.90;7.40;;;;;;;;;;108788;1257;22519;-32
2022/11/23 12:41:10;;;;;;;9.00;7.40;;;;;;;;;;108821;1265;22555;-32
2022/11/23 12:43:58;;;;;;;8.90;7.60;;;;;;;;;;108720;1259;22613;-32
2022/11/23 12:46:41;;;;;;;8.20;6.90;;;;;;;;;;108597;1261;22547;-31
2022/11/23 12:49:33;;;;;;;8.40;7.20;;;;;;;;;;108694;1265;23084;-33
2022/11/23 12:52:27;;;;;;;8.50;7.60;;;;;;;;;;108725;1265;24194;-33
2022/11/23 12:55:15;;;;;;;7.60;6.60;;;;;;;;;;108643;1264;22523;-33
2022/11/23 12:57:56;;;;;;;8.80;7.10;;;;;;;;;;108742;1256;22635;-33
2022/11/23 13:00:34;;;;;;;8.80;6.90;;;;;;;;;;108770;1263;25151;-32
2022/11/23 13:03:58;;;;;;;8.20;6.80;;;;;;;;;;108763;1262;22667;-32
2022/11/23 13:07:09;;;;;;;8.00;6.80;;;;;;;;;;108725;1264;24142;-31
2022/11/23 13:10:17;;;;;;;8.20;6.70;;;;;;;;;;108766;1255;22605;-31
2022/11/23 13:13:17;;;;;;;8.60;6.40;;;;;;;;;;108641;1264;23855;-35
2022/11/23 13:16:32;;;;;;;8.30;6.30;;;;;;;;;;108722;1263;22510;-33
2022/11/23 13:19:26;;;;;;;8.40;7.20;;;;;;;;;;108746;1263;22595;-33
2022/11/23 13:21:59;;;;;;;7.90;6.90;;;;;;;;;;108777;1256;22499;-33
2022/11/23 13:24:34;;;;;;;8.90;6.90;;;;;;;;;;108796;1255;25444;-33
2022/11/23 13:27:45;;;;;;;8.90;6.80;;;;;;;;;;108740;1258;22622;-33
2022/11/23 13:30:33;;;;;;;8.20;6.70;;;;;;;;;;108786;1264;22543;-32
2022/11/23 13:33:35;;;;;;;9.20;7.20;;;;;;;;;;108715;1264;22554;-32
2022/11/23 13:36:11;;;;;;;9.00;7.20;;;;;;;;;;108708;1265;25260;-33
2022/11/23 13:38:47;;;;;;;8.90;6.80;;;;;;;;;;108844;1262;22580;-32
2022/11/23 13:42:00;;;;;;;8.90;7.00;;;;;;;;;;108785;1262;23168;-34
2022/11/23 13:44:34;;;;;;;8.90;7.40;;;;;;;;;;108852;1261;22771;-34
2022/11/23 13:47:20;;;;;;;8.30;7.10;;;;;;;;;;108617;1263;22561;-32
2022/11/23 13:49:54;;;;;;;8.90;7.70;;;;;;;;;;108773;1264;25265;-32
2022/11/23 13:52:35;;;;;;;9.20;7.30;;;;;;;;;;108571;1264;22613;-34
2022/11/23 13:55:23;;;;;;;8.10;6.80;;;;;;;;;;108684;1262;22558;-32
2022/11/23 13:58:39;;;;;;;8.10;6.80;;;;;;;;;;108761;1263;22505;-32
2022/11/23 14:01:14;;;;;;;8.50;6.70;;;;;;;;;;108655;1263;22560;-32
2022/11/23 14:03:55;;;;;;;8.70;7.10;;;;;;;;;;108654;1262;22614;-32
2022/11/23 14:06:40;;;;;;;9.20;7.30;;;;;;;;;;108642;1263;22534;-31
2022/11/23 14:09:21;;;;;;;7.80;6.50;;;;;;;;;;108805;1262;22510;-32
2022/11/23 14:12:05;;;;;;;8.30;7.00;;;;;;;;;;108811;1262;22557;-32
2022/11/23 14:14:51;;;;;;;8.00;6.60;;;;;;;;;;108764;1263;22485;-32
2022/11/23 14:18:15;;;;;;;8.40;6.90;;;;;;;;;;108605;1263;22564;-32
2022/11/23 14:20:58;;;;;;;7.80;6.70;;;;;;;;;;108606;1264;22540;-32
2022/11/23 14:24:23;;;;;;;8.80;7.20;;;;;;;;;;108685;1264;22598;-32
2022/11/23 14:27:11;;;;;;;8.90;7.30;;;;;;;;;;108713;1262;22789;-32
2022/11/23 14:30:23;;;;;;;8.20;6.80;;;;;;;;;;108811;1256;22553;-32
2022/11/23 14:33:10;;;;;;;9.40;7.00;;;;;;;;;;108786;1262;25367;-32
2022/11/23 14:35:57;;;;;;;8.80;7.40;;;;;;;;;;108722;1263;22552;-32
2022/11/23 14:38:50;;;;;;;8.90;7.20;;;;;;;;;;108614;1264;22565;-32
2022/11/23 14:41:26;;;;;;;8.70;7.50;;;;;;;;;;108602;1265;25557;-32
2022/11/23 14:44:01;;;;;;;8.60;7.20;;;;;;;;;;108635;1263;22612;-32
2022/11/23 14:46:34;;;;;;;8.70;7.80;;;;;;;;;;108696;1262;22557;-32
2022/11/23 14:49:15;;;;;;;9.40;7.90;;;;;;;;;;108535;1262;267748;-32
2022/11/23 14:51:48;;;;;;;9.20;8.00;;;;;;;;;;108659;1265;22679;-32
2022/11/23 14:54:20;;;;;;;8.80;7.70;;;;;;;;;;108756;1256;22526;-32
2022/11/23 14:56:56;;;;;;;9.80;7.80;;;;;;;;;;108640;1262;22650;-32
2022/11/23 14:59:31;;;;;;;11.40;8.30;;;;;;;;;;108707;1265;22559;-32
2022/11/23 15:02:11;;;;;;;9.70;8.20;;;;;;;;;;108522;1264;22568;-31
2022/11/23 15:05:02;;;;;;;8.80;7.90;;;;;;;;;;108555;1263;22590;-33
2022/11/23 15:07:48;;;;;;;10.70;8.80;;;;;;;;;;108656;1261;22559;-32
2022/11/23 15:10:39;;;;;;;10.90;9.30;;;;;;;;;;108732;1256;22500;-32
2022/11/23 15:13:24;;;;;;;11.00;9.00;;;;;;;;;;108689;1263;25404;-32
2022/11/23 15:15:58;;;;;;;10.90;8.70;;;;;;;;;;108747;1260;22507;-32
2022/11/23 15:18:34;;;;;;;11.80;9.10;;;;;;;;;;108718;1263;22548;-32
2022/11/23 15:21:16;;;;;;;11.50;9.40;;;;;;;;;;108682;1264;22613;-31